Time;durP1;ratioP1;P1;durP2;ratioP2;P2;SDS_P1;SDS_P2;PMS_P1;PMS_P2;Temp;Humidity;BMP_temperature;BMP_pressure;BME280_temperature;BME280_humidity;BME280_pressure;Samples;Min_cycle;Max_cycle;Signal;HPM_P1;HPM_P2
2022/06/19 00:01:20;;;;;;;1106.33;996.80;;;13.90;66.90;;;;;;4947712;28;20286;-65
2022/06/19 00:03:48;;;;;;;1095.20;987.53;;;13.90;67.00;;;;;;4933658;28;20306;-65
2022/06/19 00:06:16;;;;;;;1103.03;998.73;;;13.90;67.00;;;;;;4967004;28;20297;-65
2022/06/19 00:08:48;;;;;;;1091.03;989.30;;;13.90;67.20;;;;;;4968551;28;20297;-65
2022/06/19 00:11:15;;;;;;;1133.00;999.90;;;14.00;67.10;;;;;;4929868;29;20303;-65
2022/06/19 00:13:41;;;;;;;1095.60;986.83;;;14.00;66.80;;;;;;4946117;28;20397;-65
2022/06/19 00:16:07;;;;;;;1072.67;960.90;;;14.00;66.70;;;;;;4971628;28;20389;-65
2022/06/19 00:18:34;;;;;;;1084.43;984.60;;;14.00;66.80;;;;;;4954191;28;20035;-65
2022/06/19 00:21:00;;;;;;;1109.97;999.60;;;14.00;66.80;;;;;;4971120;28;20813;-65
2022/06/19 00:23:26;;;;;;;1134.23;999.90;;;14.00;66.50;;;;;;4968569;28;20322;-65
2022/06/19 00:25:52;;;;;;;1084.10;983.27;;;14.00;66.10;;;;;;4964986;28;20810;-65
2022/06/19 00:28:18;;;;;;;1132.03;999.90;;;14.10;66.20;;;;;;4966700;28;20039;-65
2022/06/19 00:30:44;;;;;;;1117.70;999.90;;;14.10;66.30;;;;;;4958382;28;20039;-65
2022/06/19 00:33:09;;;;;;;1119.90;999.90;;;14.10;66.50;;;;;;4956324;28;20046;-65
2022/06/19 00:35:35;;;;;;;1136.13;999.90;;;14.10;66.70;;;;;;4968365;28;20058;-65
2022/06/19 00:38:01;;;;;;;1119.90;999.90;;;14.10;66.50;;;;;;4955618;28;20050;-65
2022/06/19 00:40:29;;;;;;;1108.33;999.90;;;14.20;66.60;;;;;;4962230;28;20070;-65
2022/06/19 00:42:55;;;;;;;1115.70;999.60;;;14.20;67.00;;;;;;4965136;28;20047;-65
2022/06/19 00:45:41;;;;;;;1138.53;999.90;;;14.20;67.10;;;;;;4971158;28;20806;-64
2022/06/19 00:48:18;;;;;;;1087.67;983.87;;;14.20;67.70;;;;;;4945864;29;20118;-64
2022/06/19 00:50:46;;;;;;;1133.70;999.90;;;14.20;67.80;;;;;;4957819;28;20389;-64
2022/06/19 00:53:35;;;;;;;1108.60;992.93;;;14.20;68.00;;;;;;4952225;28;20346;-65
2022/06/19 00:56:01;;;;;;;1036.83;942.30;;;14.10;68.80;;;;;;4936964;28;20303;-65
2022/06/19 00:58:34;;;;;;;1065.37;964.43;;;14.10;68.40;;;;;;4970693;28;20836;-65
2022/06/19 01:01:08;;;;;;;1083.17;980.37;;;14.10;68.60;;;;;;4961607;28;20305;-65
2022/06/19 01:04:02;;;;;;;1117.97;999.90;;;14.10;68.60;;;;;;4949097;28;20804;-65
2022/06/19 01:06:28;;;;;;;1083.20;978.17;;;14.20;69.30;;;;;;4951384;28;20282;-65
2022/06/19 01:08:55;;;;;;;1135.27;999.90;;;14.10;69.50;;;;;;4967408;28;20314;-65
2022/06/19 01:11:22;;;;;;;1079.87;979.47;;;14.10;70.00;;;;;;4970222;28;20408;-65
2022/06/19 01:13:49;;;;;;;1052.77;951.03;;;14.10;69.50;;;;;;4951265;28;20306;-65
2022/06/19 01:16:15;;;;;;;1067.70;969.73;;;14.10;69.20;;;;;;4952195;28;20385;-65
2022/06/19 01:18:41;;;;;;;1078.60;974.47;;;14.10;69.20;;;;;;4957364;28;20299;-65
2022/06/19 01:21:22;;;;;;;1066.43;968.80;;;14.10;69.30;;;;;;4945686;28;20055;-65
2022/06/19 01:24:00;;;;;;;1083.23;985.00;;;14.20;69.40;;;;;;4970888;28;21079;-65
2022/06/19 01:26:30;;;;;;;1083.90;987.67;;;14.20;69.30;;;;;;4958463;28;20306;-65
2022/06/19 01:28:56;;;;;;;1065.60;962.17;;;14.20;69.70;;;;;;4955312;28;20636;-65
2022/06/19 01:31:47;;;;;;;1098.20;995.80;;;14.20;69.70;;;;;;4970220;28;20801;-65
2022/06/19 01:34:27;;;;;;;1061.40;965.17;;;14.30;69.60;;;;;;4970739;28;20901;-65
2022/06/19 01:37:00;;;;;;;1073.97;970.07;;;14.30;69.70;;;;;;4967428;28;20687;-65
2022/06/19 01:39:28;;;;;;;1056.87;955.83;;;14.30;69.60;;;;;;4943422;28;20298;-65
2022/06/19 01:41:54;;;;;;;1076.67;973.67;;;14.30;69.40;;;;;;4959029;28;20290;-65
2022/06/19 01:44:20;;;;;;;1106.27;999.57;;;14.30;69.10;;;;;;4953116;28;20372;-65
2022/06/19 01:46:46;;;;;;;1020.30;926.07;;;14.30;68.80;;;;;;4948744;28;20127;-65
2022/06/19 01:49:13;;;;;;;1089.97;986.57;;;14.40;68.80;;;;;;4942013;28;20051;-65
2022/06/19 01:51:39;;;;;;;1085.63;981.83;;;14.30;68.80;;;;;;4964542;28;20715;-65
2022/06/19 01:54:19;;;;;;;1132.77;999.90;;;14.30;69.00;;;;;;4956764;28;20309;-65
2022/06/19 01:56:45;;;;;;;1092.83;984.10;;;14.30;69.10;;;;;;4952602;28;20040;-64
2022/06/19 01:59:11;;;;;;;1051.47;950.83;;;14.30;69.20;;;;;;4940623;28;20679;-64
2022/06/19 02:01:39;;;;;;;1063.30;958.50;;;14.30;69.00;;;;;;4943984;29;20309;-65
2022/06/19 02:04:06;;;;;;;1081.43;975.07;;;14.30;68.80;;;;;;4942545;29;20046;-65
2022/06/19 02:06:39;;;;;;;1064.93;961.47;;;14.30;68.80;;;;;;4946306;28;20337;-65
2022/06/19 02:09:05;;;;;;;1107.20;992.83;;;14.30;68.50;;;;;;4966441;28;20691;-64
2022/06/19 02:11:34;;;;;;;1088.57;981.57;;;14.20;68.50;;;;;;4951213;28;20376;-65
2022/06/19 02:14:04;;;;;;;1079.13;977.67;;;14.20;68.50;;;;;;4941954;29;20303;-65
2022/06/19 02:16:33;;;;;;;1095.60;984.73;;;14.20;68.60;;;;;;4968806;28;20337;-65
2022/06/19 02:18:59;;;;;;;1025.93;929.63;;;14.20;68.40;;;;;;4952668;28;20295;-65
2022/06/19 02:21:42;;;;;;;1055.67;957.03;;;14.20;68.60;;;;;;4949154;28;20297;-65
2022/06/19 02:24:11;;;;;;;1034.10;937.17;;;14.20;68.40;;;;;;4943897;28;20113;-65
2022/06/19 02:26:38;;;;;;;1060.27;963.67;;;14.20;68.20;;;;;;4967539;28;20352;-65
2022/06/19 02:29:09;;;;;;;1097.13;992.00;;;14.10;68.30;;;;;;4950224;28;20305;-65
2022/06/19 02:31:37;;;;;;;1052.47;954.13;;;14.10;68.50;;;;;;4952188;28;20305;-65
2022/06/19 02:34:29;;;;;;;1099.57;992.50;;;14.10;68.30;;;;;;4964477;28;20377;-65
2022/06/19 02:36:57;;;;;;;1014.97;928.27;;;14.10;68.20;;;;;;4951767;28;20329;-65
2022/06/19 02:39:34;;;;;;;1006.83;920.33;;;14.10;68.20;;;;;;4957942;28;20299;-65
2022/06/19 02:42:26;;;;;;;1048.20;954.93;;;14.10;68.20;;;;;;4952269;28;20301;-65
2022/06/19 02:44:57;;;;;;;1052.13;957.33;;;14.10;68.10;;;;;;4952598;28;20703;-65
2022/06/19 02:47:25;;;;;;;1020.70;928.90;;;14.10;68.20;;;;;;4952864;28;20298;-65
2022/06/19 02:49:51;;;;;;;1029.23;936.73;;;14.10;68.50;;;;;;4947895;28;20353;-65
2022/06/19 02:52:17;;;;;;;1068.70;966.70;;;14.10;68.70;;;;;;4963709;28;20718;-65
2022/06/19 02:54:43;;;;;;;1040.83;946.77;;;14.10;68.80;;;;;;4947885;28;20392;-65
2022/06/19 02:57:11;;;;;;;1086.30;982.40;;;14.10;68.90;;;;;;4941257;28;20459;-65
2022/06/19 02:59:37;;;;;;;1093.70;989.77;;;14.10;68.90;;;;;;4951918;28;20114;-65
2022/06/19 03:02:03;;;;;;;1117.93;999.90;;;14.10;69.70;;;;;;4953554;28;20302;-66
2022/06/19 03:04:38;;;;;;;1155.27;999.90;;;14.10;71.90;;;;;;4935476;29;20098;-66
2022/06/19 03:07:04;;;;;;;1198.13;999.90;;;14.00;74.00;;;;;;4958965;28;20370;-66
2022/06/19 03:09:30;;;;;;;1135.70;999.90;;;13.80;75.80;;;;;;4970224;28;20059;-68
2022/06/19 03:11:56;;;;;;;1285.67;999.90;;;13.70;77.40;;;;;;4935372;29;20306;-68
2022/06/19 03:14:23;;;;;;;1093.17;984.60;;;13.40;78.30;;;;;;4933257;28;20682;-69
2022/06/19 03:16:49;;;;;;;1080.20;971.70;;;13.30;80.00;;;;;;4951585;28;20041;-69
2022/06/19 03:19:14;;;;;;;1129.50;981.80;;;13.10;80.20;;;;;;4956988;28;20289;-69
2022/06/19 03:21:40;;;;;;;1071.20;968.97;;;13.10;82.40;;;;;;4944700;28;20046;-70
2022/06/19 03:24:06;;;;;;;1007.83;915.57;;;13.00;83.60;;;;;;4940851;29;20457;-71
2022/06/19 03:26:32;;;;;;;1100.87;982.13;;;12.90;84.00;;;;;;4967179;28;20055;-71
2022/06/19 03:28:58;;;;;;;1126.33;976.57;;;12.70;84.40;;;;;;4918456;29;20363;-71
2022/06/19 03:31:27;;;;;;;1108.30;989.75;;;12.50;85.00;;;;;;4933802;28;20042;-71
2022/06/19 03:33:53;;;;;;;1749.60;999.90;;;12.40;85.30;;;;;;4953904;28;20634;-71
2022/06/19 03:36:19;;;;;;;1869.03;999.90;;;12.30;85.60;;;;;;4935275;28;20050;-71
2022/06/19 03:38:46;;;;;;;1874.57;999.90;;;12.30;86.10;;;;;;4953839;28;20046;-71
2022/06/19 03:41:12;;;;;;;1938.13;999.90;;;12.30;86.50;;;;;;4972639;28;20133;-70
2022/06/19 03:43:38;;;;;;;1997.93;999.90;;;12.30;86.80;;;;;;4957058;28;20066;-71
2022/06/19 03:46:12;;;;;;;1999.90;999.90;;;12.20;86.70;;;;;;4954779;28;20050;-71
2022/06/19 03:48:43;;;;;;;1853.90;999.90;;;12.20;87.70;;;;;;4956258;28;20035;-70
2022/06/19 03:51:10;;;;;;;1988.15;999.90;;;12.10;87.80;;;;;;4957110;28;20054;-70
2022/06/19 03:53:36;;;;;;;1999.90;999.90;;;12.10;87.90;;;;;;4915330;29;20066;-70
2022/06/19 03:56:03;;;;;;;1999.90;976.83;;;12.00;88.10;;;;;;4934435;29;20483;-71
2022/06/19 03:58:45;;;;;;;1999.90;864.72;;;12.00;88.60;;;;;;4972030;28;20373;-71
2022/06/19 04:01:32;;;;;;;1999.90;973.35;;;12.00;88.70;;;;;;4946048;28;20557;-70
2022/06/19 04:03:58;;;;;;;1999.90;999.90;;;12.10;89.20;;;;;;4960040;28;20047;-70
2022/06/19 04:06:31;;;;;;;1999.90;999.90;;;12.00;89.20;;;;;;4971718;28;20065;-70
2022/06/19 04:08:58;;;;;;;1708.07;999.90;;;12.00;89.40;;;;;;4951198;29;20047;-70
2022/06/19 04:11:25;;;;;;;1999.90;999.90;;;12.00;89.30;;;;;;4950598;28;20082;-70
2022/06/19 04:13:54;;;;;;;1999.90;999.90;;;11.90;89.20;;;;;;4967243;28;20137;-70
2022/06/19 04:16:29;;;;;;;1999.90;999.90;;;11.80;89.40;;;;;;4970982;28;20127;-70
2022/06/19 04:18:56;;;;;;;1999.90;955.92;;;11.80;89.90;;;;;;4954072;28;20070;-71
2022/06/19 04:21:25;;;;;;;1999.90;999.90;;;11.70;90.00;;;;;;4954016;28;20038;-70
2022/06/19 04:23:56;;;;;;;1999.90;999.90;;;11.70;90.10;;;;;;4970837;28;20483;-70
2022/06/19 04:26:23;;;;;;;1999.90;999.90;;;11.60;90.50;;;;;;4965862;28;20078;-70
2022/06/19 04:28:48;;;;;;;1999.90;999.90;;;11.60;90.50;;;;;;4954772;28;20056;-71
2022/06/19 04:31:14;;;;;;;1839.60;999.90;;;11.50;90.50;;;;;;4955287;28;20038;-70
2022/06/19 04:33:40;;;;;;;1999.90;999.90;;;11.50;91.00;;;;;;4940179;28;20471;-70
2022/06/19 04:36:12;;;;;;;1999.90;999.90;;;11.50;91.10;;;;;;4951138;28;20055;-70
2022/06/19 04:38:38;;;;;;;1999.90;999.90;;;11.40;91.70;;;;;;4969020;28;20394;-70
2022/06/19 04:41:04;;;;;;;1911.38;999.90;;;11.40;91.90;;;;;;4939104;28;20114;-70
2022/06/19 04:43:30;;;;;;;1999.90;999.90;;;11.40;92.10;;;;;;4971780;28;20074;-70
2022/06/19 04:46:04;;;;;;;1999.90;999.90;;;11.40;92.30;;;;;;4950551;28;20073;-70
2022/06/19 04:48:30;;;;;;;1999.90;999.90;;;11.50;92.60;;;;;;4971912;28;20134;-70
2022/06/19 04:50:56;;;;;;;1999.90;999.90;;;11.50;92.80;;;;;;4955236;28;20039;-70
2022/06/19 04:53:21;;;;;;;1999.90;999.03;;;11.60;93.00;;;;;;4970289;28;20117;-70
2022/06/19 04:55:47;;;;;;;1999.90;989.70;;;11.70;93.20;;;;;;4954207;28;20502;-70
2022/06/19 04:58:13;;;;;;;1999.90;892.63;;;11.70;93.40;;;;;;4936027;29;20039;-69
2022/06/19 05:00:40;;;;;;;1999.90;999.90;;;11.80;93.30;;;;;;4964871;28;20495;-70
2022/06/19 05:03:06;;;;;;;1999.90;990.65;;;11.80;93.70;;;;;;4952668;28;20101;-70
2022/06/19 05:05:32;;;;;;;1887.57;999.90;;;11.80;93.70;;;;;;4966819;28;20058;-70
2022/06/19 05:07:57;;;;;;;1812.80;999.90;;;11.80;93.80;;;;;;4938196;28;20502;-70
2022/06/19 05:10:23;;;;;;;1288.07;999.90;;;11.90;93.90;;;;;;4952822;28;20117;-70
2022/06/19 05:12:54;;;;;;;1453.50;999.90;;;11.90;93.90;;;;;;4968109;28;20073;-70
2022/06/19 05:15:20;;;;;;;1740.90;999.90;;;11.90;94.40;;;;;;4970979;28;20794;-70
2022/06/19 05:17:50;;;;;;;1853.77;999.90;;;11.90;94.10;;;;;;4965468;28;20463;-70
2022/06/19 05:20:16;;;;;;;1784.05;999.90;;;11.80;94.30;;;;;;4968318;28;20121;-70
2022/06/19 05:22:42;;;;;;;1685.50;999.90;;;11.80;94.60;;;;;;4931307;28;20077;-70
2022/06/19 05:25:08;;;;;;;1996.05;999.90;;;11.80;94.50;;;;;;4969127;28;20447;-69
2022/06/19 05:27:40;;;;;;;1628.72;999.90;;;11.80;94.50;;;;;;4970146;28;20046;-70
2022/06/19 05:30:10;;;;;;;1648.78;999.90;;;11.70;94.50;;;;;;4953426;28;20058;-70
2022/06/19 05:32:35;;;;;;;1727.65;999.90;;;11.60;94.50;;;;;;4954335;28;20054;-70
2022/06/19 05:35:01;;;;;;;1547.17;999.90;;;11.50;94.50;;;;;;4962658;28;20047;-69
2022/06/19 05:37:27;;;;;;;1793.77;999.90;;;11.50;94.90;;;;;;4964944;28;20039;-69
2022/06/19 05:39:53;;;;;;;1999.90;999.90;;;11.50;95.30;;;;;;4953510;28;20038;-70
2022/06/19 05:42:18;;;;;;;1999.90;999.90;;;11.50;94.80;;;;;;4935993;29;20050;-70
2022/06/19 05:44:44;;;;;;;1876.27;999.90;;;11.50;95.00;;;;;;4968396;28;20054;-69
2022/06/19 05:47:10;;;;;;;1831.03;999.90;;;11.50;95.10;;;;;;4970556;28;20046;-69
2022/06/19 05:49:36;;;;;;;1697.80;999.90;;;11.40;95.20;;;;;;4943413;28;20053;-69
2022/06/19 05:52:11;;;;;;;1690.37;999.90;;;11.50;95.20;;;;;;4954604;28;20510;-69
2022/06/19 05:54:37;;;;;;;1663.63;999.90;;;11.50;95.30;;;;;;4970064;28;20074;-69
2022/06/19 05:57:03;;;;;;;1902.10;999.90;;;11.50;95.40;;;;;;4926513;29;20117;-69
2022/06/19 05:59:29;;;;;;;1806.43;999.90;;;11.60;95.60;;;;;;4947438;28;20094;-69
2022/06/19 06:01:54;;;;;;;1872.60;999.90;;;11.60;95.60;;;;;;4938432;28;20039;-69
2022/06/19 06:04:20;;;;;;;1653.57;999.90;;;11.70;95.50;;;;;;4953995;28;20593;-70
2022/06/19 06:06:46;;;;;;;1985.93;999.90;;;11.80;95.50;;;;;;4968426;28;20279;-70
2022/06/19 06:09:13;;;;;;;1745.47;999.90;;;11.90;95.20;;;;;;4953589;28;20047;-69
2022/06/19 06:11:39;;;;;;;1852.28;999.90;;;12.00;95.30;;;;;;4938041;28;20085;-69
2022/06/19 06:14:05;;;;;;;1764.03;999.90;;;12.10;95.70;;;;;;4960375;28;20042;-70
2022/06/19 06:16:31;;;;;;;1642.50;999.90;;;12.10;95.20;;;;;;4964181;28;20063;-69
2022/06/19 06:18:57;;;;;;;1860.13;999.90;;;12.20;94.80;;;;;;4946052;28;20063;-69
2022/06/19 06:21:24;;;;;;;1785.13;999.90;;;12.20;94.80;;;;;;4954449;28;20101;-69
2022/06/19 06:23:50;;;;;;;1912.25;999.90;;;12.30;94.80;;;;;;4948265;28;20046;-70
2022/06/19 06:26:29;;;;;;;1782.18;999.90;;;12.40;94.70;;;;;;4969382;28;20038;-69
2022/06/19 06:28:56;;;;;;;1590.30;999.90;;;12.50;94.70;;;;;;4953388;28;20038;-69
2022/06/19 06:31:23;;;;;;;1927.10;999.90;;;12.80;94.60;;;;;;4957008;28;20551;-69
2022/06/19 06:33:49;;;;;;;1907.53;999.90;;;13.00;94.40;;;;;;4952233;28;20051;-69
2022/06/19 06:36:16;;;;;;;1938.43;999.90;;;13.10;93.90;;;;;;4965932;28;20372;-69
2022/06/19 06:38:41;;;;;;;1943.60;999.90;;;13.10;93.20;;;;;;4952946;28;20387;-69
2022/06/19 06:41:09;;;;;;;1976.83;999.90;;;13.10;92.80;;;;;;4951503;28;20333;-69
2022/06/19 06:43:37;;;;;;;1960.17;999.90;;;13.10;92.60;;;;;;4949590;28;20102;-69
2022/06/19 06:46:07;;;;;;;1939.93;999.90;;;13.00;92.70;;;;;;4967381;28;20290;-69
2022/06/19 06:48:34;;;;;;;1824.30;999.90;;;12.90;92.20;;;;;;4946860;28;20307;-69
2022/06/19 06:51:00;;;;;;;1788.83;999.90;;;12.90;92.00;;;;;;4957091;28;20443;-69
2022/06/19 06:53:25;;;;;;;1749.00;999.90;;;12.80;92.20;;;;;;4934992;29;20382;-69
2022/06/19 06:55:56;;;;;;;1925.40;999.90;;;12.80;92.10;;;;;;4963286;28;20739;-69
2022/06/19 06:58:21;;;;;;;1806.80;999.90;;;12.80;92.30;;;;;;4954362;28;20034;-69
2022/06/19 07:00:47;;;;;;;1910.27;999.90;;;12.80;92.20;;;;;;4945746;28;20710;-69
2022/06/19 07:03:13;;;;;;;1999.90;999.90;;;12.80;92.10;;;;;;4963263;28;20459;-69
2022/06/19 07:05:38;;;;;;;1868.37;999.90;;;12.90;91.70;;;;;;4952881;28;20506;-69
2022/06/19 07:08:05;;;;;;;1999.07;999.90;;;12.90;90.80;;;;;;4920356;28;20043;-69
2022/06/19 07:10:31;;;;;;;1999.90;999.90;;;12.90;90.30;;;;;;4934686;28;20090;-69
2022/06/19 07:12:57;;;;;;;1999.90;999.90;;;12.90;90.00;;;;;;4946662;28;20404;-69
2022/06/19 07:15:24;;;;;;;1717.73;999.90;;;12.90;90.80;;;;;;4964849;28;20066;-69
2022/06/19 07:17:50;;;;;;;1999.90;999.90;;;12.90;90.50;;;;;;4936366;28;20310;-69
2022/06/19 07:20:16;;;;;;;1794.57;999.90;;;12.90;90.20;;;;;;4966195;28;20305;-69
2022/06/19 07:22:42;;;;;;;1906.77;999.90;;;12.90;90.60;;;;;;4959232;28;20304;-69
2022/06/19 07:25:08;;;;;;;1999.90;999.90;;;12.90;90.40;;;;;;4945556;28;20302;-69
2022/06/19 07:27:34;;;;;;;1999.90;999.90;;;12.90;89.80;;;;;;4941365;28;20303;-69
2022/06/19 07:30:01;;;;;;;1785.00;999.90;;;12.90;89.50;;;;;;4917051;28;20384;-69
2022/06/19 07:32:26;;;;;;;1844.57;999.90;;;13.00;89.10;;;;;;4957963;28;20488;-68
2022/06/19 07:34:52;;;;;;;1828.60;999.90;;;12.90;89.00;;;;;;4946340;28;20309;-68
2022/06/19 07:37:18;;;;;;;1694.80;999.90;;;12.90;88.50;;;;;;4945867;28;20549;-69
2022/06/19 07:39:43;;;;;;;1832.73;999.90;;;12.90;87.90;;;;;;4949367;28;20098;-68
2022/06/19 07:42:09;;;;;;;1728.30;999.90;;;12.90;88.70;;;;;;4949985;28;20328;-69
2022/06/19 07:44:36;;;;;;;1571.13;999.90;;;12.90;89.00;;;;;;4965459;28;20166;-69
2022/06/19 07:50:09;;;;;;;1625.77;999.90;;;12.90;87.90;;;;;;4965944;28;20294;-69
2022/06/19 07:52:39;;;;;;;1668.33;999.90;;;12.90;87.80;;;;;;4943360;28;20306;-69
2022/06/19 07:55:06;;;;;;;1733.63;999.90;;;12.90;87.10;;;;;;4962226;28;20417;-68
2022/06/19 07:57:32;;;;;;;1999.90;999.90;;;12.90;87.90;;;;;;4971717;28;20816;-69
2022/06/19 07:59:58;;;;;;;1770.43;999.90;;;13.00;88.30;;;;;;4971169;28;20793;-69
2022/06/19 08:02:24;;;;;;;1504.70;999.90;;;13.00;88.60;;;;;;4970198;28;20341;-69
2022/06/19 08:04:50;;;;;;;1540.87;999.90;;;13.10;88.70;;;;;;4955996;28;20046;-69
2022/06/19 08:07:17;;;;;;;1736.53;999.90;;;13.10;88.40;;;;;;4954126;28;20302;-69
2022/06/19 08:09:46;;;;;;;1569.63;999.90;;;13.20;88.20;;;;;;4954951;28;20298;-68
2022/06/19 08:12:12;;;;;;;1999.90;999.90;;;13.20;87.90;;;;;;4950001;28;20390;-68
2022/06/19 08:14:38;;;;;;;1615.17;999.90;;;13.30;87.80;;;;;;4965201;28;20406;-68
2022/06/19 08:17:04;;;;;;;1780.63;999.90;;;13.30;86.90;;;;;;4952051;29;20660;-68
2022/06/19 08:19:30;;;;;;;1999.90;999.90;;;13.30;86.60;;;;;;4963164;28;20045;-68
2022/06/19 08:21:56;;;;;;;1999.90;999.90;;;13.40;85.20;;;;;;4958150;28;20294;-68
2022/06/19 08:24:22;;;;;;;1999.90;999.90;;;13.30;85.50;;;;;;4946672;28;20105;-68
2022/06/19 08:26:52;;;;;;;1999.90;999.90;;;13.40;86.70;;;;;;4958171;28;20046;-68
2022/06/19 08:29:17;;;;;;;1999.90;999.90;;;13.40;86.70;;;;;;4965123;28;20570;-68
2022/06/19 08:31:43;;;;;;;1999.90;999.90;;;13.40;85.90;;;;;;4952734;28;20290;-68
2022/06/19 08:34:09;;;;;;;1999.90;999.90;;;13.50;86.10;;;;;;4935207;28;20352;-68
2022/06/19 08:36:36;;;;;;;1853.30;999.90;;;13.50;86.30;;;;;;4967275;28;20046;-68
2022/06/19 08:39:06;;;;;;;1999.90;999.90;;;13.50;85.90;;;;;;4961305;28;20075;-68
2022/06/19 08:42:02;;;;;;;1999.90;999.90;;;13.60;85.20;;;;;;4956093;28;20296;-68
2022/06/19 08:44:27;;;;;;;1999.90;999.90;;;13.70;85.70;;;;;;4965048;28;20385;-68
2022/06/19 08:47:08;;;;;;;1905.10;999.90;;;13.80;85.50;;;;;;4970075;28;20519;-68
2022/06/19 08:49:43;;;;;;;1886.80;999.90;;;13.90;84.70;;;;;;4970111;28;20054;-68
2022/06/19 08:52:15;;;;;;;1974.90;999.90;;;14.10;84.80;;;;;;4967760;28;20307;-68
2022/06/19 08:54:53;;;;;;;1888.50;999.90;;;14.30;84.40;;;;;;4947907;28;20046;-68
2022/06/19 08:57:34;;;;;;;1999.90;999.90;;;14.50;83.80;;;;;;4962441;28;20326;-68
2022/06/19 09:00:33;;;;;;;1999.90;999.90;;;14.50;83.00;;;;;;4947642;28;20298;-68
2022/06/19 09:03:01;;;;;;;1999.90;999.90;;;14.60;82.50;;;;;;4960531;28;20716;-68
2022/06/19 09:05:44;;;;;;;1999.90;999.90;;;14.60;81.50;;;;;;4945003;28;20309;-68
2022/06/19 09:08:22;;;;;;;1999.90;999.90;;;14.70;80.80;;;;;;4962603;28;20560;-68
2022/06/19 09:11:12;;;;;;;1999.90;999.90;;;14.90;81.80;;;;;;4956862;28;20309;-68
2022/06/19 09:14:05;;;;;;;1999.90;999.90;;;15.00;81.30;;;;;;4964056;28;20655;-68
2022/06/19 09:16:33;;;;;;;1766.63;999.90;;;15.20;80.90;;;;;;4960160;28;20295;-68
2022/06/19 09:19:09;;;;;;;1999.90;999.90;;;15.40;81.50;;;;;;4963310;28;20686;-68
2022/06/19 09:22:17;;;;;;;1999.90;999.90;;;15.40;81.40;;;;;;4958634;28;20381;-68
2022/06/19 09:24:55;;;;;;;1999.90;999.90;;;15.30;80.60;;;;;;4938691;28;20299;-68
2022/06/19 09:27:31;;;;;;;1605.07;999.90;;;15.30;80.80;;;;;;4963996;28;20329;-68
2022/06/19 09:30:11;;;;;;;1999.90;999.90;;;15.20;79.20;;;;;;4963719;28;20377;-68
2022/06/19 09:32:53;;;;;;;1999.90;999.90;;;15.30;79.00;;;;;;4960648;28;20334;-68
2022/06/19 09:35:26;;;;;;;1999.90;999.90;;;15.50;80.20;;;;;;4979758;28;20342;-68
2022/06/19 09:38:00;;;;;;;1999.90;999.90;;;15.50;77.20;;;;;;4954387;28;20381;-68
2022/06/19 09:40:31;;;;;;;1822.10;999.90;;;15.50;76.60;;;;;;4954508;28;20405;-68
2022/06/19 09:43:22;;;;;;;1912.00;999.90;;;15.50;77.70;;;;;;4956673;28;20938;-68
2022/06/19 09:45:52;;;;;;;1632.90;999.90;;;15.60;77.80;;;;;;4942895;28;20310;-68
2022/06/19 09:48:20;;;;;;;1912.90;999.90;;;15.90;77.30;;;;;;4957138;28;20861;-68
2022/06/19 09:51:05;;;;;;;1809.13;999.90;;;16.10;77.00;;;;;;4958763;28;20337;-68
2022/06/19 09:53:55;;;;;;;1766.87;999.90;;;16.20;77.00;;;;;;4951860;28;20462;-69
2022/06/19 09:56:30;;;;;;;1488.03;999.90;;;16.20;73.70;;;;;;4957219;28;20298;-68
2022/06/19 09:59:17;;;;;;;1999.90;999.90;;;16.30;76.50;;;;;;4963840;28;20340;-68
2022/06/19 10:01:45;;;;;;;1999.90;999.90;;;16.20;75.80;;;;;;4963255;28;20635;-68
2022/06/19 10:04:22;;;;;;;1999.90;999.90;;;16.20;76.20;;;;;;4942681;28;20416;-68
2022/06/19 10:06:58;;;;;;;1999.90;999.90;;;16.10;74.70;;;;;;4953624;28;20622;-68
2022/06/19 10:09:57;;;;;;;1999.90;999.90;;;16.20;74.50;;;;;;4957594;28;20660;-68
2022/06/19 10:12:34;;;;;;;1974.23;999.90;;;16.50;75.40;;;;;;4963654;28;20642;-68
2022/06/19 10:15:09;;;;;;;1999.87;999.90;;;16.90;74.40;;;;;;4958182;28;20313;-69
2022/06/19 10:18:10;;;;;;;1999.90;999.90;;;17.10;73.00;;;;;;4954655;28;20306;-69
2022/06/19 10:24:14;;;;;;;1999.90;999.90;;;17.30;70.30;;;;;;4956645;28;20897;-69
2022/06/19 10:26:50;;;;;;;1882.13;999.90;;;17.40;72.30;;;;;;4948082;28;20404;-68
2022/06/19 10:29:26;;;;;;;1900.90;999.90;;;17.40;71.10;;;;;;4952752;28;20821;-69
2022/06/19 10:31:58;;;;;;;1999.90;999.90;;;17.40;69.90;;;;;;4955626;28;20422;-68
2022/06/19 10:34:44;;;;;;;1999.90;999.90;;;17.40;71.10;;;;;;4975223;28;20307;-68
2022/06/19 10:37:42;;;;;;;1566.57;999.90;;;17.40;69.20;;;;;;4956477;28;20298;-68
2022/06/19 10:40:38;;;;;;;1999.90;999.90;;;17.30;68.90;;;;;;4909541;28;20332;-68
2022/06/19 10:43:28;;;;;;;1999.90;999.90;;;17.20;70.00;;;;;;4937163;28;20307;-68
2022/06/19 10:45:59;;;;;;;1832.23;999.90;;;17.20;69.60;;;;;;4954362;28;20039;-68
2022/06/19 10:48:25;;;;;;;1999.90;999.90;;;17.30;70.00;;;;;;4960205;28;20289;-68
2022/06/19 10:51:27;;;;;;;1716.93;999.90;;;17.40;70.00;;;;;;4941404;28;20578;-68
2022/06/19 10:54:11;;;;;;;1735.63;999.90;;;17.50;68.20;;;;;;4937455;28;20057;-70
2022/06/19 10:57:05;;;;;;;1898.60;999.90;;;17.50;68.80;;;;;;4941724;28;20791;-68
2022/06/19 10:59:31;;;;;;;1785.90;999.90;;;17.50;69.10;;;;;;4959828;28;20428;-69
2022/06/19 11:05:13;;;;;;;1754.10;999.90;;;17.60;68.20;;;;;;4961692;28;20305;-68
2022/06/19 11:07:40;;;;;;;1728.20;999.90;;;17.40;68.00;;;;;;4956018;28;20338;-68
2022/06/19 11:10:15;;;;;;;1819.13;999.90;;;17.30;68.00;;;;;;4946537;28;20349;-69
2022/06/19 11:12:42;;;;;;;;;;;17.30;68.40;;;;;;4957944;28;20301;-69
2022/06/19 11:15:17;;;;;;;1688.70;999.90;;;17.20;65.20;;;;;;4941567;28;20389;-68
2022/06/19 11:17:43;;;;;;;1844.32;999.90;;;17.00;66.90;;;;;;4941720;29;20298;-68
2022/06/19 11:20:30;;;;;;;1697.13;999.90;;;17.10;67.80;;;;;;4941426;28;20410;-68
2022/06/19 11:23:19;;;;;;;1690.83;999.90;;;17.00;65.20;;;;;;4951553;28;20039;-68
2022/06/19 11:26:05;;;;;;;1420.47;999.90;;;17.10;66.70;;;;;;4936078;28;20385;-68
2022/06/19 11:28:48;;;;;;;1716.83;999.90;;;17.00;66.30;;;;;;4937451;28;20302;-69
2022/06/19 11:31:21;;;;;;;1625.13;999.90;;;17.00;66.30;;;;;;4947646;28;20298;-69
2022/06/19 11:33:51;;;;;;;1739.93;999.90;;;17.00;65.80;;;;;;4966452;28;20317;-69
2022/06/19 11:36:28;;;;;;;1629.43;999.90;;;17.00;65.00;;;;;;4961188;28;21223;-69
2022/06/19 11:38:54;;;;;;;1591.47;999.90;;;17.00;65.10;;;;;;4952805;28;20302;-69
2022/06/19 11:41:34;;;;;;;1472.70;999.90;;;16.90;64.00;;;;;;4948484;28;20291;-69
2022/06/19 11:44:12;;;;;;;1443.33;999.90;;;16.90;64.50;;;;;;4958400;28;20794;-68
2022/06/19 11:46:51;;;;;;;1403.80;999.90;;;16.90;64.80;;;;;;4953309;28;20294;-68
2022/06/19 11:49:36;;;;;;;1383.67;999.90;;;17.00;65.10;;;;;;4968410;28;20329;-69
2022/06/19 11:52:06;;;;;;;1472.07;999.90;;;17.10;64.70;;;;;;4956865;28;20317;-69
2022/06/19 11:54:40;;;;;;;1480.63;999.90;;;17.10;65.70;;;;;;4963763;28;20338;-69
2022/06/19 11:57:13;;;;;;;1455.45;999.90;;;17.20;65.40;;;;;;4964298;28;20316;-69
2022/06/19 11:59:45;;;;;;;1576.03;999.90;;;17.40;65.40;;;;;;4934818;29;20139;-69
2022/06/19 12:02:35;;;;;;;1384.63;999.90;;;17.70;65.10;;;;;;4947058;28;20678;-69
2022/06/19 12:05:18;;;;;;;1450.70;999.90;;;18.20;62.30;;;;;;4955409;28;20318;-69
2022/06/19 12:07:45;;;;;;;1505.57;999.90;;;18.40;62.30;;;;;;4978244;28;20802;-69
2022/06/19 12:10:13;;;;;;;1472.33;999.90;;;18.60;61.60;;;;;;4952354;28;20385;-69
2022/06/19 12:12:39;;;;;;;1573.40;999.90;;;18.80;60.60;;;;;;4964890;28;20321;-69
2022/06/19 12:15:11;;;;;;;1202.33;999.90;;;19.10;60.50;;;;;;4948709;28;20303;-69
2022/06/19 12:17:40;;;;;;;1195.43;999.90;;;19.40;59.30;;;;;;4965238;28;20298;-69
2022/06/19 12:20:06;;;;;;;1354.80;999.90;;;19.60;59.10;;;;;;4960214;28;20364;-69
2022/06/19 12:22:51;;;;;;;1321.23;999.90;;;19.60;57.50;;;;;;4949297;28;20305;-69
2022/06/19 12:25:31;;;;;;;1282.72;999.90;;;19.50;56.70;;;;;;4953274;28;20043;-69
2022/06/19 12:28:14;;;;;;;1403.53;999.90;;;19.50;57.50;;;;;;4956884;28;20046;-69